Asahikawa, Japan
Current Conditions -  °F | °C
As of 8:00 PM on Saturday 22 Nov 2014 (Local Time) from RJEC Reporting Station
Scattered Clouds Scattered Clouds  
Wind Chill: 41°   Ceiling: Unl
Heat Index: 41°   Visibility: 6mi
Dew Point: 32°   Wind: 2mph
Humidity: 70%   Direction: NA
Pressure: 30.03"   Gusts: NA
Location:  43.77°N, 142.36°E
Report Text: RJEC 221100Z VRB02KT 9999 FEW010 SCT030 05/00 Q1017
Loading
Personal Weather Stations






























Interactive Weather Map New forecast layout! Learn more

10-Day Weather Forecast

Advertisements
Track Severe Weather on mobile